Lower Lake, CA

9:53 PM PDT on September 17, 2014 (GMT -0700)
Jerusalem Grade | Change Station
CLOSE
Current Station
Personal Weather Station
Location: Lower Lake, CA
Elevation: 1846 ft
Nearby Weather Stations

Elev 1846 ft 38.83 °N, 122.53 °W | Updated 10 minutes ago

Partly Cloudy
Partly Cloudy
62.2 °F
Feels Like 62.2 °F
N
0.0
Wind Variable Wind from NW
Gusts 3.0 mph

Today
High -- | Low -- °F
--% Chance of Precip.
Yesterday
High -- | Low -- °F
Precip. -- in
6:53 AM 7:15 PM
Waning Crescent, 30% visible
Pressure 29.76 in
Visibility 5.0 miles
Clouds Mostly Cloudy 1200 ft
Overcast 1700 ft
Dew Point 57 °F
Humidity 82%
Rainfall 0.00 in
Snow Depth 0 in , 0 in , 0 in
UV 0 out of 12
Pollen Not available.
Air Quality Not available.
Flu Activity Not available.
SPECI KSTS 180437Z 00000KT 5SM -RA BR BKN012 OVC017 18/17 A2976 RMK AO2 P0000

More Conditions Fewer Conditions

Pressure 29.76 in
Visibility 5.0 miles
Clouds Mostly Cloudy 1200 ft
Overcast 1700 ft
Dew Point 57 °F
Humidity 82%
Rainfall 0.00 in
Snow Depth 0 in , 0 in , 0 in
UV 0 out of 12
Pollen Not available.
Air Quality Not available.
Flu Activity Not available.
SPECI KSTS 180437Z 00000KT 5SM -RA BR BKN012 OVC017 18/17 A2976 RMK AO2 P0000

More Conditions Fewer Conditions

10-Day Weather Forecast

Almanac

Astronomy

Sep. 17, 2014 Rise Set
Actual Time 6:53 AM PDT 7:15 PM PDT
Civil Twilight 6:26 AM PDT 7:41 PM PDT
Nautical Twilight 5:55 AM PDT 8:12 PM PDT
Astronomical Twilight 5:23 AM PDT 8:44 PM PDT
Moon 1:00 AM PDT (9/17) 3:26 PM PDT (9/17)
Length of Visible Light 13h 14m
Length of Day
12h 21m
Tomorrow will be 2m 30s shorter.
Waning Crescent, 30% of the Moon is Illuminated
Sep 18
Waning Crescent
Sep 24
New
Oct 1
First Quarter
Oct 8
Full
Oct 15
Last Quarter

Yesterday's Extremes

State Highs State Lows

Community

WunderPhotos

Upload Photos

1,754,295 photos uploaded!

Nearby

Snow Depth

Station Depth Elevation
Hagan's Meadow 0 in 8000 ft
Heavenly Valley 0 in 8850 ft
CSS Lab 2 in 6900 ft
Leavitt Lake 0 in 9400 ft
Monitor Pass 0 in 8350 ft

Earthquake Activity

City Distance Mag. Time & Date
Cobb, California 10 miles 2.7 1:23 PM PDT
2014-09-16
Minimum magnitude displayed is 2.5.

Coastal Water Temperatures

Place Temperature
No Stations Reporting

Nearby Weather Stations